sensor_id;sensor_type;location;lat;lon;timestamp;temperature;humidity
44166;DHT22;30476;53.468;9.826;2023-04-01T00:00:56;12.10;99.90
44166;DHT22;30476;53.468;9.826;2023-04-01T00:03:23;12.10;99.90
44166;DHT22;30476;53.468;9.826;2023-04-01T00:05:50;12.10;99.90
44166;DHT22;30476;53.468;9.826;2023-04-01T00:08:16;12.10;99.90
44166;DHT22;30476;53.468;9.826;2023-04-01T00:10:42;12.10;99.90
44166;DHT22;30476;53.468;9.826;2023-04-01T00:13:07;12.00;99.90
44166;DHT22;30476;53.468;9.826;2023-04-01T00:15:34;12.10;99.90
44166;DHT22;30476;53.468;9.826;2023-04-01T00:18:00;12.00;99.90
44166;DHT22;30476;53.468;9.826;2023-04-01T00:20:26;12.00;99.90
44166;DHT22;30476;53.468;9.826;2023-04-01T00:22:53;12.00;99.90
44166;DHT22;30476;53.468;9.826;2023-04-01T00:25:18;12.00;99.90
44166;DHT22;30476;53.468;9.826;2023-04-01T00:27:44;12.00;99.90
44166;DHT22;30476;53.468;9.826;2023-04-01T00:30:11;12.00;99.90
44166;DHT22;30476;53.468;9.826;2023-04-01T00:32:36;12.00;99.90
44166;DHT22;30476;53.468;9.826;2023-04-01T00:35:03;12.00;99.90
44166;DHT22;30476;53.468;9.826;2023-04-01T00:37:29;12.00;99.90
44166;DHT22;30476;53.468;9.826;2023-04-01T00:39:55;12.00;99.90
44166;DHT22;30476;53.468;9.826;2023-04-01T00:42:22;12.00;99.90
44166;DHT22;30476;53.468;9.826;2023-04-01T00:44:51;12.00;99.90
44166;DHT22;30476;53.468;9.826;2023-04-01T00:47:18;12.00;99.90
44166;DHT22;30476;53.468;9.826;2023-04-01T00:49:46;11.90;99.90
44166;DHT22;30476;53.468;9.826;2023-04-01T00:52:16;12.00;99.90
44166;DHT22;30476;53.468;9.826;2023-04-01T00:54:46;12.00;99.90
44166;DHT22;30476;53.468;9.826;2023-04-01T00:57:29;11.90;99.90
44166;DHT22;30476;53.468;9.826;2023-04-01T00:59:56;12.00;99.90
44166;DHT22;30476;53.468;9.826;2023-04-01T01:02:22;11.90;99.90
44166;DHT22;30476;53.468;9.826;2023-04-01T01:04:48;11.90;99.90
44166;DHT22;30476;53.468;9.826;2023-04-01T01:10:03;11.90;99.90
44166;DHT22;30476;53.468;9.826;2023-04-01T01:15:11;11.90;99.90
44166;DHT22;30476;53.468;9.826;2023-04-01T01:18:09;11.90;99.90
44166;DHT22;30476;53.468;9.826;2023-04-01T01:24:04;11.90;99.90
44166;DHT22;30476;53.468;9.826;2023-04-01T01:26:40;11.90;99.90
44166;DHT22;30476;53.468;9.826;2023-04-01T01:29:31;11.90;99.90
44166;DHT22;30476;53.468;9.826;2023-04-01T01:35:02;11.90;99.90
44166;DHT22;30476;53.468;9.826;2023-04-01T01:37:29;11.90;99.90
44166;DHT22;30476;53.468;9.826;2023-04-01T01:40:00;11.90;99.90
44166;DHT22;30476;53.468;9.826;2023-04-01T01:42:29;11.90;99.90
44166;DHT22;30476;53.468;9.826;2023-04-01T01:44:57;11.90;99.90
44166;DHT22;30476;53.468;9.826;2023-04-01T01:47:25;11.90;99.90
44166;DHT22;30476;53.468;9.826;2023-04-01T01:49:53;11.90;99.90
44166;DHT22;30476;53.468;9.826;2023-04-01T01:52:21;11.90;99.90
44166;DHT22;30476;53.468;9.826;2023-04-01T01:54:52;11.90;99.90
44166;DHT22;30476;53.468;9.826;2023-04-01T01:57:24;11.90;99.90
44166;DHT22;30476;53.468;9.826;2023-04-01T01:59:54;11.90;99.90
44166;DHT22;30476;53.468;9.826;2023-04-01T02:02:22;11.90;99.90
44166;DHT22;30476;53.468;9.826;2023-04-01T02:04:50;11.90;99.90
44166;DHT22;30476;53.468;9.826;2023-04-01T02:07:23;11.90;99.90
44166;DHT22;30476;53.468;9.826;2023-04-01T02:09:51;11.90;99.90
44166;DHT22;30476;53.468;9.826;2023-04-01T02:12:19;11.90;99.90
44166;DHT22;30476;53.468;9.826;2023-04-01T02:14:57;11.90;99.90
44166;DHT22;30476;53.468;9.826;2023-04-01T02:17:27;11.90;99.90
44166;DHT22;30476;53.468;9.826;2023-04-01T02:20:01;11.80;99.90
44166;DHT22;30476;53.468;9.826;2023-04-01T02:22:34;11.80;99.90
44166;DHT22;30476;53.468;9.826;2023-04-01T02:25:09;11.80;99.90
44166;DHT22;30476;53.468;9.826;2023-04-01T02:27:36;11.80;99.90
44166;DHT22;30476;53.468;9.826;2023-04-01T02:30:02;11.80;99.90
44166;DHT22;30476;53.468;9.826;2023-04-01T02:32:29;11.80;99.90
44166;DHT22;30476;53.468;9.826;2023-04-01T02:34:56;11.70;99.90
44166;DHT22;30476;53.468;9.826;2023-04-01T02:37:23;11.80;99.90
44166;DHT22;30476;53.468;9.826;2023-04-01T02:39:49;11.80;99.90
44166;DHT22;30476;53.468;9.826;2023-04-01T02:42:14;11.80;99.90
44166;DHT22;30476;53.468;9.826;2023-04-01T02:44:40;11.70;99.90
44166;DHT22;30476;53.468;9.826;2023-04-01T02:47:06;11.80;99.90
44166;DHT22;30476;53.468;9.826;2023-04-01T02:49:32;11.70;99.90
44166;DHT22;30476;53.468;9.826;2023-04-01T02:51:57;11.80;99.90
44166;DHT22;30476;53.468;9.826;2023-04-01T02:54:23;11.70;99.90
44166;DHT22;30476;53.468;9.826;2023-04-01T02:56:49;11.70;99.90
44166;DHT22;30476;53.468;9.826;2023-04-01T02:59:15;11.80;99.90
44166;DHT22;30476;53.468;9.826;2023-04-01T03:01:41;11.80;99.90
44166;DHT22;30476;53.468;9.826;2023-04-01T03:04:07;11.80;99.90
44166;DHT22;30476;53.468;9.826;2023-04-01T03:06:33;11.70;99.90
44166;DHT22;30476;53.468;9.826;2023-04-01T03:08:59;11.80;99.90
44166;DHT22;30476;53.468;9.826;2023-04-01T03:11:25;11.70;99.90
44166;DHT22;30476;53.468;9.826;2023-04-01T03:13:51;11.70;99.90
44166;DHT22;30476;53.468;9.826;2023-04-01T03:16:17;11.80;99.90
44166;DHT22;30476;53.468;9.826;2023-04-01T03:18:43;11.80;99.90
44166;DHT22;30476;53.468;9.826;2023-04-01T03:21:21;11.70;99.90
44166;DHT22;30476;53.468;9.826;2023-04-01T03:23:47;11.80;99.90
44166;DHT22;30476;53.468;9.826;2023-04-01T03:26:14;11.70;99.90
44166;DHT22;30476;53.468;9.826;2023-04-01T03:28:39;11.70;99.90
44166;DHT22;30476;53.468;9.826;2023-04-01T03:31:05;11.80;99.90
44166;DHT22;30476;53.468;9.826;2023-04-01T03:33:31;11.70;99.90
44166;DHT22;30476;53.468;9.826;2023-04-01T03:35:57;11.70;99.90
44166;DHT22;30476;53.468;9.826;2023-04-01T03:38:23;11.70;99.90
44166;DHT22;30476;53.468;9.826;2023-04-01T03:40:49;11.80;99.90
44166;DHT22;30476;53.468;9.826;2023-04-01T03:43:15;11.70;99.90
44166;DHT22;30476;53.468;9.826;2023-04-01T03:45:46;11.80;99.90
44166;DHT22;30476;53.468;9.826;2023-04-01T03:48:14;11.70;99.90
44166;DHT22;30476;53.468;9.826;2023-04-01T03:50:40;11.70;99.90
44166;DHT22;30476;53.468;9.826;2023-04-01T03:53:06;11.70;99.90
44166;DHT22;30476;53.468;9.826;2023-04-01T03:55:31;11.70;99.90
44166;DHT22;30476;53.468;9.826;2023-04-01T03:57:57;11.70;99.90
44166;DHT22;30476;53.468;9.826;2023-04-01T04:00:23;11.70;99.90
44166;DHT22;30476;53.468;9.826;2023-04-01T04:02:49;11.70;99.90
44166;DHT22;30476;53.468;9.826;2023-04-01T04:05:15;11.70;99.90
44166;DHT22;30476;53.468;9.826;2023-04-01T04:07:40;11.70;99.90
44166;DHT22;30476;53.468;9.826;2023-04-01T04:10:07;11.70;99.90
44166;DHT22;30476;53.468;9.826;2023-04-01T04:12:32;11.80;99.90
44166;DHT22;30476;53.468;9.826;2023-04-01T04:14:58;11.70;99.90
44166;DHT22;30476;53.468;9.826;2023-04-01T04:17:24;11.70;99.90
44166;DHT22;30476;53.468;9.826;2023-04-01T04:19:50;11.80;99.90
44166;DHT22;30476;53.468;9.826;2023-04-01T04:22:16;11.70;99.90
44166;DHT22;30476;53.468;9.826;2023-04-01T04:24:41;11.70;99.90
44166;DHT22;30476;53.468;9.826;2023-04-01T04:27:07;11.70;99.90
44166;DHT22;30476;53.468;9.826;2023-04-01T04:29:33;11.70;99.90
44166;DHT22;30476;53.468;9.826;2023-04-01T04:31:59;11.80;99.90
44166;DHT22;30476;53.468;9.826;2023-04-01T04:34:24;11.70;99.90
44166;DHT22;30476;53.468;9.826;2023-04-01T04:36:50;11.70;99.90
44166;DHT22;30476;53.468;9.826;2023-04-01T04:39:16;11.80;99.90
44166;DHT22;30476;53.468;9.826;2023-04-01T04:41:42;11.80;99.90
44166;DHT22;30476;53.468;9.826;2023-04-01T04:44:08;11.70;99.90
44166;DHT22;30476;53.468;9.826;2023-04-01T04:46:33;11.70;99.90
44166;DHT22;30476;53.468;9.826;2023-04-01T04:48:59;11.70;99.90
44166;DHT22;30476;53.468;9.826;2023-04-01T04:51:25;11.70;99.90
44166;DHT22;30476;53.468;9.826;2023-04-01T04:53:51;11.70;99.90
44166;DHT22;30476;53.468;9.826;2023-04-01T04:56:21;11.70;99.90
44166;DHT22;30476;53.468;9.826;2023-04-01T04:58:47;11.70;99.90
44166;DHT22;30476;53.468;9.826;2023-04-01T05:01:15;11.70;99.90
44166;DHT22;30476;53.468;9.826;2023-04-01T05:03:41;11.70;99.90
44166;DHT22;30476;53.468;9.826;2023-04-01T05:06:08;11.70;99.90
44166;DHT22;30476;53.468;9.826;2023-04-01T05:08:35;11.70;99.90
44166;DHT22;30476;53.468;9.826;2023-04-01T05:11:02;11.70;99.90
44166;DHT22;30476;53.468;9.826;2023-04-01T05:13:28;11.70;99.90
44166;DHT22;30476;53.468;9.826;2023-04-01T05:15:54;11.70;99.90
44166;DHT22;30476;53.468;9.826;2023-04-01T05:18:21;11.70;99.90
44166;DHT22;30476;53.468;9.826;2023-04-01T05:20:51;11.70;99.90
44166;DHT22;30476;53.468;9.826;2023-04-01T05:23:19;11.80;99.90
44166;DHT22;30476;53.468;9.826;2023-04-01T05:25:50;11.80;99.90
44166;DHT22;30476;53.468;9.826;2023-04-01T05:28:19;11.70;99.90
44166;DHT22;30476;53.468;9.826;2023-04-01T05:30:45;11.80;99.90
44166;DHT22;30476;53.468;9.826;2023-04-01T05:33:12;11.80;99.90
44166;DHT22;30476;53.468;9.826;2023-04-01T05:35:39;11.80;99.90
44166;DHT22;30476;53.468;9.826;2023-04-01T05:38:05;11.80;99.90
44166;DHT22;30476;53.468;9.826;2023-04-01T05:40:31;11.80;99.90
44166;DHT22;30476;53.468;9.826;2023-04-01T05:42:58;11.70;99.90
44166;DHT22;30476;53.468;9.826;2023-04-01T05:45:24;11.80;99.90
44166;DHT22;30476;53.468;9.826;2023-04-01T05:47:50;11.70;99.90
44166;DHT22;30476;53.468;9.826;2023-04-01T05:50:16;11.70;99.90
44166;DHT22;30476;53.468;9.826;2023-04-01T05:52:42;11.80;99.90
44166;DHT22;30476;53.468;9.826;2023-04-01T05:55:08;11.70;99.90
44166;DHT22;30476;53.468;9.826;2023-04-01T05:57:34;11.70;99.90
44166;DHT22;30476;53.468;9.826;2023-04-01T06:00:00;11.80;99.90
44166;DHT22;30476;53.468;9.826;2023-04-01T06:02:25;11.80;99.90
44166;DHT22;30476;53.468;9.826;2023-04-01T06:05:17;11.80;99.90
44166;DHT22;30476;53.468;9.826;2023-04-01T06:07:44;11.80;99.90
44166;DHT22;30476;53.468;9.826;2023-04-01T06:10:13;11.80;99.90
44166;DHT22;30476;53.468;9.826;2023-04-01T06:12:45;11.80;99.90
44166;DHT22;30476;53.468;9.826;2023-04-01T06:18:22;11.80;99.90
44166;DHT22;30476;53.468;9.826;2023-04-01T06:21:05;11.80;99.90
44166;DHT22;30476;53.468;9.826;2023-04-01T06:23:52;11.80;99.90
44166;DHT22;30476;53.468;9.826;2023-04-01T06:26:39;11.90;99.90
44166;DHT22;30476;53.468;9.826;2023-04-01T06:49:07;11.30;99.90
44166;DHT22;30476;53.468;9.826;2023-04-01T06:52:07;11.20;99.90
44166;DHT22;30476;53.468;9.826;2023-04-01T06:54:38;11.00;99.90
44166;DHT22;30476;53.468;9.826;2023-04-01T06:57:40;10.90;99.90
44166;DHT22;30476;53.468;9.826;2023-04-01T07:00:31;10.90;99.90
44166;DHT22;30476;53.468;9.826;2023-04-01T07:03:32;10.80;99.90
44166;DHT22;30476;53.468;9.826;2023-04-01T07:06:06;10.70;99.90
44166;DHT22;30476;53.468;9.826;2023-04-01T07:08:37;10.60;99.90
44166;DHT22;30476;53.468;9.826;2023-04-01T07:11:06;10.60;99.90
44166;DHT22;30476;53.468;9.826;2023-04-01T07:14:06;10.60;99.90
44166;DHT22;30476;53.468;9.826;2023-04-01T07:16:44;10.50;99.90
44166;DHT22;30476;53.468;9.826;2023-04-01T07:19:25;10.50;99.90
44166;DHT22;30476;53.468;9.826;2023-04-01T07:21:55;10.40;99.90
44166;DHT22;30476;53.468;9.826;2023-04-01T07:24:26;10.40;99.90
44166;DHT22;30476;53.468;9.826;2023-04-01T07:26:55;10.40;99.90
44166;DHT22;30476;53.468;9.826;2023-04-01T07:29:21;10.30;99.90
44166;DHT22;30476;53.468;9.826;2023-04-01T07:34:38;10.10;99.90
44166;DHT22;30476;53.468;9.826;2023-04-01T07:37:18;10.20;99.90
44166;DHT22;30476;53.468;9.826;2023-04-01T07:47:57;10.10;99.90
44166;DHT22;30476;53.468;9.826;2023-04-01T07:50:28;10.00;99.90
44166;DHT22;30476;53.468;9.826;2023-04-01T07:53:10;10.00;99.90
44166;DHT22;30476;53.468;9.826;2023-04-01T07:55:46;9.80;99.90
44166;DHT22;30476;53.468;9.826;2023-04-01T07:58:37;9.80;99.90
44166;DHT22;30476;53.468;9.826;2023-04-01T08:07:07;9.70;99.90
44166;DHT22;30476;53.468;9.826;2023-04-01T08:12:21;9.70;99.90
44166;DHT22;30476;53.468;9.826;2023-04-01T08:15:19;9.70;99.90
44166;DHT22;30476;53.468;9.826;2023-04-01T08:17:58;9.60;99.90
44166;DHT22;30476;53.468;9.826;2023-04-01T08:20:39;9.50;99.90
44166;DHT22;30476;53.468;9.826;2023-04-01T08:23:12;9.50;99.90
44166;DHT22;30476;53.468;9.826;2023-04-01T08:25:43;9.50;99.90
44166;DHT22;30476;53.468;9.826;2023-04-01T08:28:18;9.40;99.90
44166;DHT22;30476;53.468;9.826;2023-04-01T08:30:51;9.30;99.90
44166;DHT22;30476;53.468;9.826;2023-04-01T08:33:26;9.30;99.90
44166;DHT22;30476;53.468;9.826;2023-04-01T08:36:26;9.20;99.90
44166;DHT22;30476;53.468;9.826;2023-04-01T08:39:09;9.20;99.90
44166;DHT22;30476;53.468;9.826;2023-04-01T08:42:26;9.20;99.90
44166;DHT22;30476;53.468;9.826;2023-04-01T08:50:23;9.20;99.90
44166;DHT22;30476;53.468;9.826;2023-04-01T08:58:55;9.20;99.90
44166;DHT22;30476;53.468;9.826;2023-04-01T09:04:13;9.10;99.90
44166;DHT22;30476;53.468;9.826;2023-04-01T09:23:35;9.20;99.90
44166;DHT22;30476;53.468;9.826;2023-04-01T09:34:15;9.20;99.90
44166;DHT22;30476;53.468;9.826;2023-04-01T09:36:47;9.20;99.90
44166;DHT22;30476;53.468;9.826;2023-04-01T09:40:17;9.10;99.90
44166;DHT22;30476;53.468;9.826;2023-04-01T09:42:42;9.00;99.90
44166;DHT22;30476;53.468;9.826;2023-04-01T09:45:21;8.90;99.90
44166;DHT22;30476;53.468;9.826;2023-04-01T09:48:02;8.80;99.90
44166;DHT22;30476;53.468;9.826;2023-04-01T09:50:39;8.80;99.90
44166;DHT22;30476;53.468;9.826;2023-04-01T09:53:19;8.80;99.90
44166;DHT22;30476;53.468;9.826;2023-04-01T10:06:43;9.00;99.90
44166;DHT22;30476;53.468;9.826;2023-04-01T10:12:17;9.00;99.90
44166;DHT22;30476;53.468;9.826;2023-04-01T10:20:58;8.90;99.90
44166;DHT22;30476;53.468;9.826;2023-04-01T10:23:49;8.90;99.90
44166;DHT22;30476;53.468;9.826;2023-04-01T10:26:32;8.90;99.90
44166;DHT22;30476;53.468;9.826;2023-04-01T10:43:28;9.00;99.90
44166;DHT22;30476;53.468;9.826;2023-04-01T10:48:47;8.90;99.90
44166;DHT22;30476;53.468;9.826;2023-04-01T10:51:53;8.90;99.90
44166;DHT22;30476;53.468;9.826;2023-04-01T10:54:43;9.00;99.90
44166;DHT22;30476;53.468;9.826;2023-04-01T10:57:41;9.00;99.90
44166;DHT22;30476;53.468;9.826;2023-04-01T11:05:58;8.90;99.90
44166;DHT22;30476;53.468;9.826;2023-04-01T11:08:41;8.90;99.90
44166;DHT22;30476;53.468;9.826;2023-04-01T11:14:35;8.90;99.90
44166;DHT22;30476;53.468;9.826;2023-04-01T11:22:38;9.00;99.90
44166;DHT22;30476;53.468;9.826;2023-04-01T11:25:36;8.90;99.90
44166;DHT22;30476;53.468;9.826;2023-04-01T11:28:34;8.90;99.90
44166;DHT22;30476;53.468;9.826;2023-04-01T11:31:35;8.90;99.90
44166;DHT22;30476;53.468;9.826;2023-04-01T11:37:24;8.90;99.90
44166;DHT22;30476;53.468;9.826;2023-04-01T11:40:27;8.90;99.90
44166;DHT22;30476;53.468;9.826;2023-04-01T11:54:26;9.00;99.90
44166;DHT22;30476;53.468;9.826;2023-04-01T12:03:01;8.90;99.90
44166;DHT22;30476;53.468;9.826;2023-04-01T12:08:27;8.80;99.90
44166;DHT22;30476;53.468;9.826;2023-04-01T12:13:42;8.90;99.90
44166;DHT22;30476;53.468;9.826;2023-04-01T12:16:46;8.90;99.90
44166;DHT22;30476;53.468;9.826;2023-04-01T12:24:52;9.00;99.90
44166;DHT22;30476;53.468;9.826;2023-04-01T12:27:32;8.80;99.90
44166;DHT22;30476;53.468;9.826;2023-04-01T12:36:28;8.80;99.90
44166;DHT22;30476;53.468;9.826;2023-04-01T12:39:13;8.70;99.90
44166;DHT22;30476;53.468;9.826;2023-04-01T12:55:49;8.50;99.90
44166;DHT22;30476;53.468;9.826;2023-04-01T12:58:51;8.50;99.90
44166;DHT22;30476;53.468;9.826;2023-04-01T13:04:30;8.50;99.90
44166;DHT22;30476;53.468;9.826;2023-04-01T13:13:03;8.50;99.90
44166;DHT22;30476;53.468;9.826;2023-04-01T13:15:52;8.50;99.90
44166;DHT22;30476;53.468;9.826;2023-04-01T13:21:25;8.30;99.90
44166;DHT22;30476;53.468;9.826;2023-04-01T13:24:09;8.30;99.90
44166;DHT22;30476;53.468;9.826;2023-04-01T13:27:55;8.20;99.90
44166;DHT22;30476;53.468;9.826;2023-04-01T13:30:13;8.20;99.90
44166;DHT22;30476;53.468;9.826;2023-04-01T13:32:50;8.20;99.90
44166;DHT22;30476;53.468;9.826;2023-04-01T13:46:41;8.20;99.90
44166;DHT22;30476;53.468;9.826;2023-04-01T13:50:17;8.10;99.90
44166;DHT22;30476;53.468;9.826;2023-04-01T13:52:33;8.20;99.90
44166;DHT22;30476;53.468;9.826;2023-04-01T14:01:28;8.10;99.90
44166;DHT22;30476;53.468;9.826;2023-04-01T14:07:08;8.00;99.90
44166;DHT22;30476;53.468;9.826;2023-04-01T14:10:05;7.90;99.90
44166;DHT22;30476;53.468;9.826;2023-04-01T14:12:39;7.90;99.90
44166;DHT22;30476;53.468;9.826;2023-04-01T14:26:45;7.90;99.90
44166;DHT22;30476;53.468;9.826;2023-04-01T14:29:43;7.90;99.90
44166;DHT22;30476;53.468;9.826;2023-04-01T14:38:24;7.90;99.90
44166;DHT22;30476;53.468;9.826;2023-04-01T14:41:19;7.80;99.90
44166;DHT22;30476;53.468;9.826;2023-04-01T14:43:54;7.80;99.90
44166;DHT22;30476;53.468;9.826;2023-04-01T14:46:53;7.80;99.90
44166;DHT22;30476;53.468;9.826;2023-04-01T14:52:31;7.80;99.90
44166;DHT22;30476;53.468;9.826;2023-04-01T14:55:00;7.80;99.90
44166;DHT22;30476;53.468;9.826;2023-04-01T14:57:31;7.90;99.90
44166;DHT22;30476;53.468;9.826;2023-04-01T15:05:38;7.80;99.90
44166;DHT22;30476;53.468;9.826;2023-04-01T15:08:33;7.80;99.90
44166;DHT22;30476;53.468;9.826;2023-04-01T15:12:10;7.80;99.90
44166;DHT22;30476;53.468;9.826;2023-04-01T15:14:24;7.80;99.90
44166;DHT22;30476;53.468;9.826;2023-04-01T15:31:11;7.50;99.90
44166;DHT22;30476;53.468;9.826;2023-04-01T15:41:35;7.50;99.90
44166;DHT22;30476;53.468;9.826;2023-04-01T15:44:02;7.50;99.90
44166;DHT22;30476;53.468;9.826;2023-04-01T15:46:44;7.50;99.90
44166;DHT22;30476;53.468;9.826;2023-04-01T15:49:42;7.60;99.90
44166;DHT22;30476;53.468;9.826;2023-04-01T16:00:24;7.50;99.90
44166;DHT22;30476;53.468;9.826;2023-04-01T16:03:09;7.40;99.90
44166;DHT22;30476;53.468;9.826;2023-04-01T16:12:01;7.30;99.90
44166;DHT22;30476;53.468;9.826;2023-04-01T16:14:50;7.20;99.90
44166;DHT22;30476;53.468;9.826;2023-04-01T16:17:48;7.20;99.90
44166;DHT22;30476;53.468;9.826;2023-04-01T16:20:21;7.20;99.90
44166;DHT22;30476;53.468;9.826;2023-04-01T16:23:11;7.20;99.90
44166;DHT22;30476;53.468;9.826;2023-04-01T16:25:54;7.10;99.90
44166;DHT22;30476;53.468;9.826;2023-04-01T16:28:36;7.10;99.90
44166;DHT22;30476;53.468;9.826;2023-04-01T16:31:13;7.00;99.90
44166;DHT22;30476;53.468;9.826;2023-04-01T16:33:52;7.00;99.90
44166;DHT22;30476;53.468;9.826;2023-04-01T16:36:37;7.00;99.90
44166;DHT22;30476;53.468;9.826;2023-04-01T16:42:13;7.00;99.90
44166;DHT22;30476;53.468;9.826;2023-04-01T16:44:59;7.00;99.90
44166;DHT22;30476;53.468;9.826;2023-04-01T16:47:32;7.10;99.90
44166;DHT22;30476;53.468;9.826;2023-04-01T16:50:13;7.00;99.90
44166;DHT22;30476;53.468;9.826;2023-04-01T16:53:01;7.00;99.90
44166;DHT22;30476;53.468;9.826;2023-04-01T16:55:50;7.00;99.90
44166;DHT22;30476;53.468;9.826;2023-04-01T16:58:23;7.00;99.90
44166;DHT22;30476;53.468;9.826;2023-04-01T17:01:04;7.10;99.90
44166;DHT22;30476;53.468;9.826;2023-04-01T17:03:40;7.00;99.90
44166;DHT22;30476;53.468;9.826;2023-04-01T17:06:12;7.00;99.90
44166;DHT22;30476;53.468;9.826;2023-04-01T17:14:33;7.00;99.90
44166;DHT22;30476;53.468;9.826;2023-04-01T17:17:15;6.90;99.90
44166;DHT22;30476;53.468;9.826;2023-04-01T17:19:56;7.00;99.90
44166;DHT22;30476;53.468;9.826;2023-04-01T17:28:24;6.90;99.90
44166;DHT22;30476;53.468;9.826;2023-04-01T17:31:17;6.80;99.90
44166;DHT22;30476;53.468;9.826;2023-04-01T17:39:47;6.70;99.90
44166;DHT22;30476;53.468;9.826;2023-04-01T17:45:18;6.60;99.90
44166;DHT22;30476;53.468;9.826;2023-04-01T17:48:01;6.50;99.90
44166;DHT22;30476;53.468;9.826;2023-04-01T17:50:43;6.50;99.90
44166;DHT22;30476;53.468;9.826;2023-04-01T17:59:32;6.30;99.90
44166;DHT22;30476;53.468;9.826;2023-04-01T18:14:13;6.30;99.90
44166;DHT22;30476;53.468;9.826;2023-04-01T18:16:43;6.20;99.90
44166;DHT22;30476;53.468;9.826;2023-04-01T18:19:38;6.20;99.90
44166;DHT22;30476;53.468;9.826;2023-04-01T18:22:19;6.20;99.90
44166;DHT22;30476;53.468;9.826;2023-04-01T18:25:02;6.20;99.90
44166;DHT22;30476;53.468;9.826;2023-04-01T18:27:36;6.20;99.90
44166;DHT22;30476;53.468;9.826;2023-04-01T18:32:47;6.30;99.90
44166;DHT22;30476;53.468;9.826;2023-04-01T18:35:47;6.30;99.90
44166;DHT22;30476;53.468;9.826;2023-04-01T18:38:23;6.20;99.90
44166;DHT22;30476;53.468;9.826;2023-04-01T18:41:14;6.20;99.90
44166;DHT22;30476;53.468;9.826;2023-04-01T18:46:50;6.20;99.90
44166;DHT22;30476;53.468;9.826;2023-04-01T18:49:25;6.20;99.90
44166;DHT22;30476;53.468;9.826;2023-04-01T18:52:16;6.20;99.90
44166;DHT22;30476;53.468;9.826;2023-04-01T18:54:49;6.20;99.90
44166;DHT22;30476;53.468;9.826;2023-04-01T18:57:19;6.20;99.90
44166;DHT22;30476;53.468;9.826;2023-04-01T18:59:50;6.10;99.90
44166;DHT22;30476;53.468;9.826;2023-04-01T19:02:29;6.10;99.90
44166;DHT22;30476;53.468;9.826;2023-04-01T19:05:16;6.20;99.90
44166;DHT22;30476;53.468;9.826;2023-04-01T19:07:47;6.10;99.90
44166;DHT22;30476;53.468;9.826;2023-04-01T19:10:49;6.10;99.90
44166;DHT22;30476;53.468;9.826;2023-04-01T19:14:00;6.10;99.90
44166;DHT22;30476;53.468;9.826;2023-04-01T19:16:44;6.00;99.90
44166;DHT22;30476;53.468;9.826;2023-04-01T19:19:42;6.00;99.90
44166;DHT22;30476;53.468;9.826;2023-04-01T19:25:23;5.90;99.90
44166;DHT22;30476;53.468;9.826;2023-04-01T19:27:53;6.00;99.90
44166;DHT22;30476;53.468;9.826;2023-04-01T19:30:47;6.00;99.90
44166;DHT22;30476;53.468;9.826;2023-04-01T19:36:14;5.90;99.90
44166;DHT22;30476;53.468;9.826;2023-04-01T19:47:57;5.90;99.90
44166;DHT22;30476;53.468;9.826;2023-04-01T19:58:32;6.00;99.90
44166;DHT22;30476;53.468;9.826;2023-04-01T20:01:00;6.00;99.90
44166;DHT22;30476;53.468;9.826;2023-04-01T20:03:53;5.90;99.90
44166;DHT22;30476;53.468;9.826;2023-04-01T20:06:27;5.80;99.90
44166;DHT22;30476;53.468;9.826;2023-04-01T20:09:29;5.80;99.90
44166;DHT22;30476;53.468;9.826;2023-04-01T20:14:54;5.70;99.90
44166;DHT22;30476;53.468;9.826;2023-04-01T20:31:01;5.60;99.90
44166;DHT22;30476;53.468;9.826;2023-04-01T20:37:00;5.40;99.90
44166;DHT22;30476;53.468;9.826;2023-04-01T20:39:43;5.40;99.90
44166;DHT22;30476;53.468;9.826;2023-04-01T20:42:32;5.30;99.90
44166;DHT22;30476;53.468;9.826;2023-04-01T20:45:15;5.30;99.90
44166;DHT22;30476;53.468;9.826;2023-04-01T20:50:52;5.20;99.90
44166;DHT22;30476;53.468;9.826;2023-04-01T20:53:29;5.20;99.90
44166;DHT22;30476;53.468;9.826;2023-04-01T20:58:54;5.10;99.90
44166;DHT22;30476;53.468;9.826;2023-04-01T21:01:34;5.00;99.90
44166;DHT22;30476;53.468;9.826;2023-04-01T21:09:53;5.00;99.90
44166;DHT22;30476;53.468;9.826;2023-04-01T21:13:10;4.90;99.90
44166;DHT22;30476;53.468;9.826;2023-04-01T21:15:29;4.90;99.90
44166;DHT22;30476;53.468;9.826;2023-04-01T21:18:24;4.80;99.90
44166;DHT22;30476;53.468;9.826;2023-04-01T21:29:51;4.70;99.90
44166;DHT22;30476;53.468;9.826;2023-04-01T21:32:46;4.70;99.90
44166;DHT22;30476;53.468;9.826;2023-04-01T21:35:44;4.60;99.90
44166;DHT22;30476;53.468;9.826;2023-04-01T21:38:30;4.60;99.90
44166;DHT22;30476;53.468;9.826;2023-04-01T21:41:17;4.60;99.90
44166;DHT22;30476;53.468;9.826;2023-04-01T21:47:08;4.50;99.90
44166;DHT22;30476;53.468;9.826;2023-04-01T21:52:34;4.40;99.90
44166;DHT22;30476;53.468;9.826;2023-04-01T22:01:10;4.50;99.90
44166;DHT22;30476;53.468;9.826;2023-04-01T22:04:18;4.50;99.90
44166;DHT22;30476;53.468;9.826;2023-04-01T22:12:34;4.40;99.90
44166;DHT22;30476;53.468;9.826;2023-04-01T22:15:09;4.40;99.90
44166;DHT22;30476;53.468;9.826;2023-04-01T22:18:13;4.40;99.90
44166;DHT22;30476;53.468;9.826;2023-04-01T22:20:50;4.30;99.90
44166;DHT22;30476;53.468;9.826;2023-04-01T22:23:31;4.30;99.90
44166;DHT22;30476;53.468;9.826;2023-04-01T22:26:06;4.40;99.90
44166;DHT22;30476;53.468;9.826;2023-04-01T22:31:10;4.30;99.90
44166;DHT22;30476;53.468;9.826;2023-04-01T22:36:36;4.30;99.90
44166;DHT22;30476;53.468;9.826;2023-04-01T22:39:23;4.20;99.90
44166;DHT22;30476;53.468;9.826;2023-04-01T22:50:07;4.10;99.90
44166;DHT22;30476;53.468;9.826;2023-04-01T22:52:40;4.00;99.90
44166;DHT22;30476;53.468;9.826;2023-04-01T22:55:24;4.10;99.90
44166;DHT22;30476;53.468;9.826;2023-04-01T22:57:58;4.10;99.90
44166;DHT22;30476;53.468;9.826;2023-04-01T23:00:29;4.10;99.90
44166;DHT22;30476;53.468;9.826;2023-04-01T23:05:56;4.10;99.90
44166;DHT22;30476;53.468;9.826;2023-04-01T23:08:51;4.00;99.90
44166;DHT22;30476;53.468;9.826;2023-04-01T23:11:23;4.00;99.90
44166;DHT22;30476;53.468;9.826;2023-04-01T23:14:05;4.00;99.90
44166;DHT22;30476;53.468;9.826;2023-04-01T23:16:40;4.00;99.90
44166;DHT22;30476;53.468;9.826;2023-04-01T23:19:24;3.90;99.90
44166;DHT22;30476;53.468;9.826;2023-04-01T23:22:04;4.00;99.90
44166;DHT22;30476;53.468;9.826;2023-04-01T23:24:44;3.90;99.90
44166;DHT22;30476;53.468;9.826;2023-04-01T23:29:45;3.90;99.90
44166;DHT22;30476;53.468;9.826;2023-04-01T23:32:18;3.90;99.90
44166;DHT22;30476;53.468;9.826;2023-04-01T23:34:55;3.80;99.90
44166;DHT22;30476;53.468;9.826;2023-04-01T23:37:23;3.80;99.90
44166;DHT22;30476;53.468;9.826;2023-04-01T23:39:54;3.80;99.90
44166;DHT22;30476;53.468;9.826;2023-04-01T23:42:29;3.80;99.90
44166;DHT22;30476;53.468;9.826;2023-04-01T23:45:01;3.70;99.90
44166;DHT22;30476;53.468;9.826;2023-04-01T23:47:37;3.70;99.90
44166;DHT22;30476;53.468;9.826;2023-04-01T23:50:12;3.70;99.90
44166;DHT22;30476;53.468;9.826;2023-04-01T23:52:46;3.70;99.90
44166;DHT22;30476;53.468;9.826;2023-04-01T23:57:40;3.70;99.90
